createdAt,value
2023-01-05T00:00:02.622Z,3.3
2023-01-05T00:05:56.887Z,2.8
2023-01-05T00:11:58.392Z,3.2
2023-01-05T00:17:50.036Z,3
2023-01-05T00:23:42.147Z,3.3
2023-01-05T00:29:44.630Z,3.4
2023-01-05T00:35:39.607Z,3.4
2023-01-05T00:41:31.844Z,2.9
2023-01-05T00:47:22.033Z,3
2023-01-05T00:53:32.363Z,4.1
2023-01-05T00:59:22.967Z,3.1
2023-01-05T01:05:14.243Z,3.4
2023-01-05T01:11:10.197Z,3.4
2023-01-05T01:17:06.563Z,3.9
2023-01-05T01:22:57.187Z,3.3
2023-01-05T01:29:59.152Z,3.9
2023-01-05T01:36:01.596Z,3
2023-01-05T01:41:55.165Z,3
2023-01-05T01:47:46.098Z,3.6
2023-01-05T01:53:38.074Z,3.6
2023-01-05T01:59:32.169Z,3.3
2023-01-05T02:05:23.389Z,4.4
2023-01-05T02:11:16.286Z,3.4
2023-01-05T02:17:09.392Z,3.4
2023-01-05T02:23:00.825Z,3.1
2023-01-05T02:28:53.537Z,3.6
2023-01-05T02:34:46.733Z,3.7
2023-01-05T02:40:38.325Z,4.2
2023-01-05T02:46:32.273Z,3.4
2023-01-05T02:52:24.227Z,3.8
2023-01-05T02:58:16.646Z,4.2
2023-01-05T03:04:15.291Z,4
2023-01-05T03:10:05.291Z,3.5
2023-01-05T03:15:56.648Z,4
2023-01-05T03:21:52.256Z,3.7
2023-01-05T03:27:43.636Z,3.1
2023-01-05T03:33:36.247Z,3.1
2023-01-05T03:39:28.857Z,3.4
2023-01-05T03:45:21.229Z,3.1
2023-01-05T03:51:12.787Z,3.7
2023-01-05T03:57:06.761Z,3.6
2023-01-05T04:03:00.354Z,3.7
2023-01-05T04:08:59.264Z,4.5
2023-01-05T04:14:56.216Z,3.5
2023-01-05T04:20:50.098Z,3.7
2023-01-05T04:26:42.434Z,4
2023-01-05T04:32:33.653Z,3.9
2023-01-05T04:38:36.440Z,3.9
2023-01-05T04:44:28.233Z,4.1
2023-01-05T04:50:21.930Z,3.7
2023-01-05T04:56:15.187Z,3.7
2023-01-05T05:02:08.056Z,4.8
2023-01-05T05:08:01.287Z,3.4
2023-01-05T05:14:04.716Z,4.4
2023-01-05T05:20:15.641Z,3.7
2023-01-05T05:26:07.082Z,4.3
2023-01-05T05:31:59.989Z,4.2
2023-01-05T05:38:00.888Z,3.5
2023-01-05T05:43:53.713Z,4.3
2023-01-05T05:49:49.722Z,4.2
2023-01-05T05:55:42.826Z,4.1
2023-01-05T06:01:50.390Z,4.3
2023-01-05T06:07:43.195Z,4.5
2023-01-05T06:13:36.451Z,4.4
2023-01-05T06:19:27.504Z,4
2023-01-05T06:25:19.832Z,4.3
2023-01-05T06:31:12.791Z,4.7
2023-01-05T06:37:12.044Z,4.1
2023-01-05T06:43:06.374Z,4.3
2023-01-05T06:48:57.883Z,4.3
2023-01-05T06:54:51.073Z,4.3
2023-01-05T07:00:44.809Z,4.7
2023-01-05T07:06:40.785Z,3.9
2023-01-05T07:12:33.754Z,4.3
2023-01-05T07:18:26.770Z,4
2023-01-05T07:24:22.024Z,4.4
2023-01-05T07:30:18.772Z,4.7
2023-01-05T07:36:12.893Z,4.3
2023-01-05T07:42:09.196Z,4.3
2023-01-05T07:48:03.174Z,4.2
2023-01-05T07:53:54.033Z,4
2023-01-05T07:59:46.428Z,4.6
2023-01-05T08:05:39.102Z,4.7
2023-01-05T08:11:30.891Z,4.6
2023-01-05T08:17:20.972Z,5.3
2023-01-05T08:23:12.116Z,4.6
2023-01-05T08:29:18.211Z,4.3
2023-01-05T08:35:08.102Z,4.7
2023-01-05T08:41:02.875Z,4.8
2023-01-05T08:46:53.954Z,4.5
2023-01-05T08:52:46.891Z,4.4
2023-01-05T08:58:39.963Z,4.4
2023-01-05T09:04:36.339Z,4.3
2023-01-05T09:10:28.521Z,4.8
2023-01-05T09:17:17.513Z,4.9
2023-01-05T09:23:05.381Z,5.1
2023-01-05T09:28:57.901Z,5.5
2023-01-05T09:34:52.181Z,5.5
2023-01-05T09:40:48.551Z,5.7
2023-01-05T09:46:40.994Z,5.2
2023-01-05T09:52:49.628Z,5.6
2023-01-05T10:05:02.145Z,5.7
2023-01-05T10:10:54.623Z,6.1
2023-01-05T10:17:30.428Z,5.2
2023-01-05T10:23:29.818Z,5.9
2023-01-05T10:29:20.605Z,5
2023-01-05T10:36:14.649Z,5.2
2023-01-05T10:42:07.563Z,5.2
2023-01-05T10:48:01.572Z,4.7
2023-01-05T10:53:53.857Z,5.1
2023-01-05T10:59:47.989Z,5.1
2023-01-05T11:06:23.442Z,7.2
2023-01-05T11:12:19.668Z,4.5
2023-01-05T11:18:59.197Z,4.9
2023-01-05T11:24:54.657Z,5.1
2023-01-05T11:30:47.093Z,4.7
2023-01-05T11:36:39.112Z,4.5
2023-01-05T11:42:32.712Z,4.4
2023-01-05T11:48:24.281Z,4.7
2023-01-05T11:54:35.376Z,4.8
2023-01-05T12:01:01.220Z,4.3
2023-01-05T12:07:17.143Z,4.1
2023-01-05T12:20:13.310Z,3.6
2023-01-05T12:26:24.209Z,4.1
2023-01-05T12:39:52.344Z,5.7
2023-01-05T12:45:47.289Z,4.6
2023-01-05T12:51:47.981Z,3.9
2023-01-05T12:57:43.671Z,4.5
2023-01-05T13:03:38.267Z,5.2
2023-01-05T13:09:29.321Z,4.2
2023-01-05T13:15:23.669Z,4.4
2023-01-05T13:21:21.112Z,4.7
2023-01-05T13:27:10.958Z,4.8
2023-01-05T13:33:03.058Z,4.2
2023-01-05T13:38:53.596Z,4.4
2023-01-05T13:44:45.430Z,5
2023-01-05T13:50:40.546Z,4.7
2023-01-05T13:56:50.560Z,4.3
2023-01-05T14:02:43.113Z,4.5
2023-01-05T14:08:36.803Z,4.5
2023-01-05T14:14:31.156Z,5.4
2023-01-05T14:20:23.734Z,4.6
2023-01-05T14:26:16.070Z,4.5
2023-01-05T14:32:08.008Z,4.8
2023-01-05T14:37:58.954Z,4.7
2023-01-05T14:43:52.311Z,5
2023-01-05T14:49:43.337Z,4.6
2023-01-05T14:55:47.479Z,5.3
2023-01-05T15:01:36.828Z,4.4
2023-01-05T15:07:29.038Z,4.9
2023-01-05T15:13:20.232Z,4.7
2023-01-05T15:19:10.388Z,6.1
2023-01-05T15:25:01.477Z,8.3
2023-01-05T15:30:51.795Z,5.3
2023-01-05T15:36:43.083Z,4.8
2023-01-05T15:42:33.949Z,4.9
2023-01-05T15:48:26.994Z,4.4
2023-01-05T15:54:23.007Z,4.5
2023-01-05T16:00:15.849Z,4.9
2023-01-05T16:06:06.239Z,4.7
2023-01-05T16:11:58.674Z,5.4
2023-01-05T16:17:51.542Z,4.3
2023-01-05T16:23:44.416Z,4.8
2023-01-05T16:29:37.146Z,6
2023-01-05T16:35:29.388Z,5.9
2023-01-05T16:41:20.307Z,8
2023-01-05T16:47:13.585Z,5.5
2023-01-05T16:53:04.192Z,5
2023-01-05T16:58:56.436Z,5.3
2023-01-05T17:04:49.478Z,8.6
2023-01-05T17:10:40.465Z,6.7
2023-01-05T17:16:34.521Z,5.7
2023-01-05T17:22:25.879Z,6.4
2023-01-05T17:28:17.185Z,6
2023-01-05T17:34:07.472Z,5.5
2023-01-05T17:39:59.627Z,6.5
2023-01-05T17:45:51.949Z,6.1
2023-01-05T17:51:42.495Z,8
2023-01-05T17:57:32.643Z,9.4
2023-01-05T18:03:24.850Z,7
2023-01-05T18:09:14.109Z,5.9
2023-01-05T18:15:04.538Z,6.1
2023-01-05T18:20:56.800Z,6.9
2023-01-05T18:26:52.319Z,6.5
2023-01-05T18:32:45.019Z,6.1
2023-01-05T18:38:36.224Z,6.8
2023-01-05T18:44:26.507Z,5.5
2023-01-05T18:50:16.845Z,4.4
2023-01-05T18:56:10.009Z,5.1
2023-01-05T19:02:01.372Z,4
2023-01-05T19:07:51.171Z,3.7
2023-01-05T19:13:42.626Z,3.1
2023-01-05T19:19:36.887Z,2.5
2023-01-05T19:25:27.031Z,3.7
2023-01-05T19:31:18.155Z,4.2
2023-01-05T19:37:08.485Z,3.7
2023-01-05T19:42:58.396Z,4.6
2023-01-05T19:48:49.752Z,5.5
2023-01-05T19:54:40.625Z,4.1
2023-01-05T20:00:31.031Z,4.2
2023-01-05T20:06:22.575Z,3.2
2023-01-05T20:12:21.876Z,3.8
2023-01-05T20:18:11.189Z,3.7
2023-01-05T20:24:02.227Z,3.2
2023-01-05T20:29:55.371Z,6.2
2023-01-05T20:35:46.553Z,6.3
2023-01-05T20:41:37.108Z,6.6
2023-01-05T20:47:36.682Z,5.8
2023-01-05T20:53:34.369Z,21.6
2023-01-05T20:59:26.701Z,12.5
2023-01-05T21:05:17.389Z,7.4
2023-01-05T21:11:08.040Z,8
2023-01-05T21:16:59.181Z,8.4
2023-01-05T21:22:49.910Z,11
2023-01-05T21:28:40.995Z,11.9
2023-01-05T21:34:31.397Z,6.4
2023-01-05T21:40:23.745Z,6.9
2023-01-05T21:46:14.609Z,11.6
2023-01-05T21:52:04.700Z,9.5
2023-01-05T21:57:55.271Z,6.7
2023-01-05T22:03:46.158Z,11.4
2023-01-05T22:09:39.642Z,6.6
2023-01-05T22:15:29.952Z,13.9
2023-01-05T22:21:23.956Z,11.3
2023-01-05T22:27:15.514Z,9.5
2023-01-05T22:33:15.522Z,9.6
2023-01-05T22:39:05.476Z,7.6
2023-01-05T22:44:57.479Z,6.5
2023-01-05T22:50:48.402Z,6.4
2023-01-05T22:56:42.052Z,8.1
2023-01-05T23:02:33.363Z,7.3
2023-01-05T23:08:24.458Z,11.3
2023-01-05T23:14:15.697Z,9.1
2023-01-05T23:20:09.772Z,6.7
2023-01-05T23:26:00.715Z,6.6
2023-01-05T23:31:51.427Z,5.6
2023-01-05T23:37:41.836Z,5.9
2023-01-05T23:43:34.196Z,6.1
2023-01-05T23:49:24.652Z,6.1
2023-01-05T23:55:14.205Z,7.1
